Tieton, Washington
Current Conditions -  °F | °C
As of 8:53 PM on Wednesday 17 Dec 2014 (Local Time) from KYKM Reporting Station
Light Rain Light Rain  
Wind Chill: 39°   Ceiling: 1600
Heat Index: 39°   Visibility: 9mi
Dew Point: 36°   Wind: 0mph
Humidity: 89%   Direction: NA
Pressure: 29.98"   Gusts: NA
Location:  46.7°N, 120.76°W
Report Text: KYKM 180453Z 00000KT 9SM -RA BKN016 BKN034 OVC043 04/02 A2998 RMK AO2 RAB04 SLP159 P0001 T00390022
Loading
Personal Weather Stations






























Interactive Weather Map New forecast layout! Learn more

10-Day Weather Forecast

Advertisements
Track Severe Weather on mobile